sensor_id;sensor_type;location;lat;lon;timestamp;P1;durP1;ratioP1;P2;durP2;ratioP2
64018;SDS011;66942;52.138;5.216;2023-01-28T00:02:40;9.6;;;9.21;;
64018;SDS011;66942;52.138;5.216;2023-01-28T00:04:17;10.3;;;9.81;;
64018;SDS011;66942;52.138;5.216;2023-01-28T00:06:00;11.4;;;10.9;;
64018;SDS011;66942;52.138;5.216;2023-01-28T00:07:38;11.5;;;10.9;;
64018;SDS011;66942;52.138;5.216;2023-01-28T00:10:50;10.5;;;10.0;;
64018;SDS011;66942;52.138;5.216;2023-01-28T00:12:26;10.8;;;10.3;;
64018;SDS011;66942;52.138;5.216;2023-01-28T00:14:03;10.0;;;9.5;;
64018;SDS011;66942;52.138;5.216;2023-01-28T00:17:17;10.5;;;10.0;;
64018;SDS011;66942;52.138;5.216;2023-01-28T00:18:53;10.1;;;9.6;;
64018;SDS011;66942;52.138;5.216;2023-01-28T00:20:30;10.3;;;9.81;;
64018;SDS011;66942;52.138;5.216;2023-01-28T00:23:46;11.1;;;10.6;;
64018;SDS011;66942;52.138;5.216;2023-01-28T00:25:26;10.7;;;10.21;;
64018;SDS011;66942;52.138;5.216;2023-01-28T00:27:02;11.2;;;10.7;;
64018;SDS011;66942;52.138;5.216;2023-01-28T00:28:38;11.0;;;10.5;;
64018;SDS011;66942;52.138;5.216;2023-01-28T00:31:53;11.2;;;10.7;;
64018;SDS011;66942;52.138;5.216;2023-01-28T00:33:30;11.7;;;11.1;;
64018;SDS011;66942;52.138;5.216;2023-01-28T00:35:07;11.0;;;10.5;;
64018;SDS011;66942;52.138;5.216;2023-01-28T00:38:20;11.2;;;10.7;;
64018;SDS011;66942;52.138;5.216;2023-01-28T00:39:56;12.4;;;11.8;;
64018;SDS011;66942;52.138;5.216;2023-01-28T00:41:32;11.4;;;10.7;;
64018;SDS011;66942;52.138;5.216;2023-01-28T00:43:09;11.4;;;10.7;;
64018;SDS011;66942;52.138;5.216;2023-01-28T00:46:21;11.8;;;11.2;;
64018;SDS011;66942;52.138;5.216;2023-01-28T00:47:59;12.4;;;11.8;;
64018;SDS011;66942;52.138;5.216;2023-01-28T00:49:35;12.1;;;11.5;;
64018;SDS011;66942;52.138;5.216;2023-01-28T00:52:51;12.1;;;11.5;;
64018;SDS011;66942;52.138;5.216;2023-01-28T00:54:27;12.1;;;11.5;;
64018;SDS011;66942;52.138;5.216;2023-01-28T00:56:03;11.5;;;10.9;;
64018;SDS011;66942;52.138;5.216;2023-01-28T00:59:18;11.6;;;11.0;;
64018;SDS011;66942;52.138;5.216;2023-01-28T01:00:54;11.3;;;10.8;;
64018;SDS011;66942;52.138;5.216;2023-01-28T01:02:31;12.5;;;11.9;;
64018;SDS011;66942;52.138;5.216;2023-01-28T01:04:08;12.1;;;11.5;;
64018;SDS011;66942;52.138;5.216;2023-01-28T01:07:22;12.4;;;11.8;;
64018;SDS011;66942;52.138;5.216;2023-01-28T01:08:59;12.3;;;11.7;;
64018;SDS011;66942;52.138;5.216;2023-01-28T01:10:36;13.1;;;12.4;;
64018;SDS011;66942;52.138;5.216;2023-01-28T01:13:51;12.5;;;11.8;;
64018;SDS011;66942;52.138;5.216;2023-01-28T01:15:28;12.7;;;12.1;;
64018;SDS011;66942;52.138;5.216;2023-01-28T01:17:04;13.1;;;12.4;;
64018;SDS011;66942;52.138;5.216;2023-01-28T01:20:19;11.0;;;10.4;;
64018;SDS011;66942;52.138;5.216;2023-01-28T01:21:57;11.5;;;10.9;;
64018;SDS011;66942;52.138;5.216;2023-01-28T01:23:33;11.9;;;11.4;;
64018;SDS011;66942;52.138;5.216;2023-01-28T01:25:10;12.0;;;11.4;;
64018;SDS011;66942;52.138;5.216;2023-01-28T01:28:25;11.1;;;10.6;;
64018;SDS011;66942;52.138;5.216;2023-01-28T01:30:01;12.0;;;11.5;;
64018;SDS011;66942;52.138;5.216;2023-01-28T01:31:38;12.0;;;11.4;;
64018;SDS011;66942;52.138;5.216;2023-01-28T01:34:51;12.6;;;12.0;;
64018;SDS011;66942;52.138;5.216;2023-01-28T01:36:27;11.9;;;11.3;;
64018;SDS011;66942;52.138;5.216;2023-01-28T01:38:05;12.8;;;12.2;;
64018;SDS011;66942;52.138;5.216;2023-01-28T01:39:42;12.9;;;12.3;;
64018;SDS011;66942;52.138;5.216;2023-01-28T01:43:00;11.8;;;11.2;;
64018;SDS011;66942;52.138;5.216;2023-01-28T01:44:54;11.5;;;10.9;;
64018;SDS011;66942;52.138;5.216;2023-01-28T01:46:33;10.4;;;9.9;;
64018;SDS011;66942;52.138;5.216;2023-01-28T01:48:18;10.7;;;10.21;;
64018;SDS011;66942;52.138;5.216;2023-01-28T01:51:41;11.4;;;10.8;;
64018;SDS011;66942;52.138;5.216;2023-01-28T01:53:21;11.8;;;11.2;;
64018;SDS011;66942;52.138;5.216;2023-01-28T01:55:02;12.1;;;11.5;;
64018;SDS011;66942;52.138;5.216;2023-01-28T01:56:44;12.0;;;11.4;;
64018;SDS011;66942;52.138;5.216;2023-01-28T02:00:09;12.3;;;11.7;;
64018;SDS011;66942;52.138;5.216;2023-01-28T02:01:46;10.8;;;10.3;;
64018;SDS011;66942;52.138;5.216;2023-01-28T02:03:24;11.8;;;11.2;;
64018;SDS011;66942;52.138;5.216;2023-01-28T02:05:06;13.1;;;12.4;;
64018;SDS011;66942;52.138;5.216;2023-01-28T02:08:22;13.3;;;12.6;;
64018;SDS011;66942;52.138;5.216;2023-01-28T02:09:58;13.3;;;12.6;;
64018;SDS011;66942;52.138;5.216;2023-01-28T02:11:34;12.1;;;11.5;;
64018;SDS011;66942;52.138;5.216;2023-01-28T02:13:11;10.8;;;10.3;;
64018;SDS011;66942;52.138;5.216;2023-01-28T02:22:18;11.7;;;11.1;;
64018;SDS011;66942;52.138;5.216;2023-01-28T02:24:16;11.5;;;10.9;;
64018;SDS011;66942;52.138;5.216;2023-01-28T02:27:13;11.6;;;11.1;;
64018;SDS011;66942;52.138;5.216;2023-01-28T02:29:04;11.5;;;10.8;;
64018;SDS011;66942;52.138;5.216;2023-01-28T02:30:51;11.7;;;11.0;;
64018;SDS011;66942;52.138;5.216;2023-01-28T02:32:38;10.8;;;10.3;;
64018;SDS011;66942;52.138;5.216;2023-01-28T02:34:23;11.3;;;10.7;;
64018;SDS011;66942;52.138;5.216;2023-01-28T02:36:13;12.1;;;11.5;;
64018;SDS011;66942;52.138;5.216;2023-01-28T02:39:47;10.9;;;10.3;;
64018;SDS011;66942;52.138;5.216;2023-01-28T02:41:30;11.8;;;11.3;;
64018;SDS011;66942;52.138;5.216;2023-01-28T02:43:13;12.0;;;11.4;;
64018;SDS011;66942;52.138;5.216;2023-01-28T02:44:50;12.0;;;11.4;;
64018;SDS011;66942;52.138;5.216;2023-01-28T02:49:37;11.1;;;10.5;;
64018;SDS011;66942;52.138;5.216;2023-01-28T02:51:19;13.0;;;12.3;;
64018;SDS011;66942;52.138;5.216;2023-01-28T02:54:08;12.4;;;11.7;;
64018;SDS011;66942;52.138;5.216;2023-01-28T02:55:51;12.4;;;11.7;;
64018;SDS011;66942;52.138;5.216;2023-01-28T02:57:43;12.3;;;11.7;;
64018;SDS011;66942;52.138;5.216;2023-01-28T02:59:33;11.4;;;10.9;;
64018;SDS011;66942;52.138;5.216;2023-01-28T03:01:17;11.6;;;11.0;;
64018;SDS011;66942;52.138;5.216;2023-01-28T03:04:51;11.8;;;11.2;;
64018;SDS011;66942;52.138;5.216;2023-01-28T03:06:38;13.1;;;12.4;;
64018;SDS011;66942;52.138;5.216;2023-01-28T03:09:26;11.4;;;10.8;;
64018;SDS011;66942;52.138;5.216;2023-01-28T03:36:54;11.3;;;10.7;;
64018;SDS011;66942;52.138;5.216;2023-01-28T03:38:41;11.2;;;10.7;;
64018;SDS011;66942;52.138;5.216;2023-01-28T03:40:18;11.9;;;11.3;;
64018;SDS011;66942;52.138;5.216;2023-01-28T03:41:56;11.3;;;10.7;;
64018;SDS011;66942;52.138;5.216;2023-01-28T03:43:35;11.2;;;10.7;;
64018;SDS011;66942;52.138;5.216;2023-01-28T03:45:13;11.8;;;11.2;;
64018;SDS011;66942;52.138;5.216;2023-01-28T03:48:26;11.1;;;10.5;;
64018;SDS011;66942;52.138;5.216;2023-01-28T03:50:06;11.3;;;10.7;;
64018;SDS011;66942;52.138;5.216;2023-01-28T03:51:45;11.9;;;11.3;;
64018;SDS011;66942;52.138;5.216;2023-01-28T03:54:57;12.4;;;11.7;;
64018;SDS011;66942;52.138;5.216;2023-01-28T03:56:36;13.2;;;12.5;;
64018;SDS011;66942;52.138;5.216;2023-01-28T03:58:13;12.0;;;11.4;;
64018;SDS011;66942;52.138;5.216;2023-01-28T03:59:52;12.6;;;12.0;;
64018;SDS011;66942;52.138;5.216;2023-01-28T04:03:16;11.8;;;11.2;;
64018;SDS011;66942;52.138;5.216;2023-01-28T04:04:53;13.1;;;12.4;;
64018;SDS011;66942;52.138;5.216;2023-01-28T04:06:30;12.4;;;11.8;;
64018;SDS011;66942;52.138;5.216;2023-01-28T04:09:42;12.6;;;12.0;;
64018;SDS011;66942;52.138;5.216;2023-01-28T04:11:20;13.4;;;12.8;;
64018;SDS011;66942;52.138;5.216;2023-01-28T04:12:56;12.1;;;11.5;;
64018;SDS011;66942;52.138;5.216;2023-01-28T04:14:32;12.1;;;11.5;;
64018;SDS011;66942;52.138;5.216;2023-01-28T04:17:45;12.4;;;11.8;;
64018;SDS011;66942;52.138;5.216;2023-01-28T04:19:23;12.9;;;12.2;;
64018;SDS011;66942;52.138;5.216;2023-01-28T04:21:00;11.9;;;11.3;;
64018;SDS011;66942;52.138;5.216;2023-01-28T04:24:12;12.6;;;12.0;;
64018;SDS011;66942;52.138;5.216;2023-01-28T04:25:49;12.6;;;12.0;;
64018;SDS011;66942;52.138;5.216;2023-01-28T04:27:26;12.5;;;11.8;;
64018;SDS011;66942;52.138;5.216;2023-01-28T04:30:38;10.8;;;10.3;;
64018;SDS011;66942;52.138;5.216;2023-01-28T04:32:14;11.5;;;11.0;;
64018;SDS011;66942;52.138;5.216;2023-01-28T04:33:50;11.5;;;10.9;;
64018;SDS011;66942;52.138;5.216;2023-01-28T04:35:26;12.9;;;12.2;;
64018;SDS011;66942;52.138;5.216;2023-01-28T04:38:39;12.1;;;11.5;;
64018;SDS011;66942;52.138;5.216;2023-01-28T04:40:15;12.1;;;11.5;;
64018;SDS011;66942;52.138;5.216;2023-01-28T04:41:52;12.2;;;11.6;;
64018;SDS011;66942;52.138;5.216;2023-01-28T04:45:05;11.6;;;11.0;;
64018;SDS011;66942;52.138;5.216;2023-01-28T04:46:43;12.4;;;11.7;;
64018;SDS011;66942;52.138;5.216;2023-01-28T04:48:19;12.3;;;11.7;;
64018;SDS011;66942;52.138;5.216;2023-01-28T04:51:31;11.2;;;10.7;;
64018;SDS011;66942;52.138;5.216;2023-01-28T04:53:07;11.3;;;10.7;;
64018;SDS011;66942;52.138;5.216;2023-01-28T04:54:45;11.3;;;10.7;;
64018;SDS011;66942;52.138;5.216;2023-01-28T04:56:21;10.1;;;9.6;;
64018;SDS011;66942;52.138;5.216;2023-01-28T04:59:34;10.7;;;10.21;;
64018;SDS011;66942;52.138;5.216;2023-01-28T05:01:10;11.5;;;10.9;;
64018;SDS011;66942;52.138;5.216;2023-01-28T05:02:46;9.5;;;9.1;;
64018;SDS011;66942;52.138;5.216;2023-01-28T05:05:58;10.0;;;9.5;;
64018;SDS011;66942;52.138;5.216;2023-01-28T05:07:35;10.9;;;10.4;;
64018;SDS011;66942;52.138;5.216;2023-01-28T05:09:12;11.3;;;10.7;;
64018;SDS011;66942;52.138;5.216;2023-01-28T05:12:24;10.9;;;10.3;;
64018;SDS011;66942;52.138;5.216;2023-01-28T05:14:01;10.5;;;10.0;;
64018;SDS011;66942;52.138;5.216;2023-01-28T05:15:37;11.2;;;10.5;;
64018;SDS011;66942;52.138;5.216;2023-01-28T05:17:13;10.6;;;10.0;;
64018;SDS011;66942;52.138;5.216;2023-01-28T05:20:26;10.4;;;9.9;;
64018;SDS011;66942;52.138;5.216;2023-01-28T05:22:02;10.21;;;9.71;;
64018;SDS011;66942;52.138;5.216;2023-01-28T05:23:38;10.3;;;9.81;;
64018;SDS011;66942;52.138;5.216;2023-01-28T05:26:50;10.21;;;9.71;;
64018;SDS011;66942;52.138;5.216;2023-01-28T05:28:28;10.3;;;9.81;;
64018;SDS011;66942;52.138;5.216;2023-01-28T05:30:06;10.9;;;10.4;;
64018;SDS011;66942;52.138;5.216;2023-01-28T05:33:19;10.4;;;9.9;;
64018;SDS011;66942;52.138;5.216;2023-01-28T05:34:55;11.7;;;11.2;;
64018;SDS011;66942;52.138;5.216;2023-01-28T05:36:31;11.4;;;10.8;;
64018;SDS011;66942;52.138;5.216;2023-01-28T05:38:07;11.5;;;10.9;;
64018;SDS011;66942;52.138;5.216;2023-01-28T05:41:20;10.7;;;10.21;;
64018;SDS011;66942;52.138;5.216;2023-01-28T05:42:56;11.1;;;10.6;;
64018;SDS011;66942;52.138;5.216;2023-01-28T05:44:32;11.5;;;10.9;;
64018;SDS011;66942;52.138;5.216;2023-01-28T05:47:44;11.5;;;11.0;;
64018;SDS011;66942;52.138;5.216;2023-01-28T05:49:21;11.6;;;11.0;;
64018;SDS011;66942;52.138;5.216;2023-01-28T05:50:57;11.5;;;10.9;;
64018;SDS011;66942;52.138;5.216;2023-01-28T05:54:11;11.7;;;11.1;;
64018;SDS011;66942;52.138;5.216;2023-01-28T05:55:47;11.2;;;10.5;;
64018;SDS011;66942;52.138;5.216;2023-01-28T05:57:24;11.4;;;10.9;;
64018;SDS011;66942;52.138;5.216;2023-01-28T06:00:37;12.4;;;11.8;;
64018;SDS011;66942;52.138;5.216;2023-01-28T06:02:13;12.4;;;11.8;;
64018;SDS011;66942;52.138;5.216;2023-01-28T06:03:49;11.3;;;10.8;;
64018;SDS011;66942;52.138;5.216;2023-01-28T06:05:25;10.21;;;9.71;;
64018;SDS011;66942;52.138;5.216;2023-01-28T06:08:38;10.3;;;9.81;;
64018;SDS011;66942;52.138;5.216;2023-01-28T06:10:16;11.6;;;11.0;;
64018;SDS011;66942;52.138;5.216;2023-01-28T06:11:53;12.0;;;11.4;;
64018;SDS011;66942;52.138;5.216;2023-01-28T06:15:06;14.3;;;13.6;;
64018;SDS011;66942;52.138;5.216;2023-01-28T06:16:43;13.9;;;13.2;;
64018;SDS011;66942;52.138;5.216;2023-01-28T06:18:18;12.2;;;11.5;;
64018;SDS011;66942;52.138;5.216;2023-01-28T06:21:31;14.2;;;13.5;;
64018;SDS011;66942;52.138;5.216;2023-01-28T06:23:08;15.1;;;14.3;;
64018;SDS011;66942;52.138;5.216;2023-01-28T06:24:45;15.0;;;14.2;;
64018;SDS011;66942;52.138;5.216;2023-01-28T06:26:21;13.5;;;12.8;;
64018;SDS011;66942;52.138;5.216;2023-01-28T06:29:34;13.2;;;12.5;;
64018;SDS011;66942;52.138;5.216;2023-01-28T06:31:11;14.1;;;13.2;;
64018;SDS011;66942;52.138;5.216;2023-01-28T06:32:52;14.4;;;13.7;;
64018;SDS011;66942;52.138;5.216;2023-01-28T06:36:06;14.5;;;13.8;;
64018;SDS011;66942;52.138;5.216;2023-01-28T06:37:44;14.5;;;13.7;;
64018;SDS011;66942;52.138;5.216;2023-01-28T06:39:20;14.2;;;13.4;;
64018;SDS011;66942;52.138;5.216;2023-01-28T06:40:57;15.1;;;14.2;;
64018;SDS011;66942;52.138;5.216;2023-01-28T06:44:10;15.9;;;15.0;;
64018;SDS011;66942;52.138;5.216;2023-01-28T06:45:47;14.6;;;13.9;;
64018;SDS011;66942;52.138;5.216;2023-01-28T06:47:23;15.5;;;14.7;;
64018;SDS011;66942;52.138;5.216;2023-01-28T06:50:35;14.4;;;13.7;;
64018;SDS011;66942;52.138;5.216;2023-01-28T06:52:11;16.7;;;15.8;;
64018;SDS011;66942;52.138;5.216;2023-01-28T06:53:47;16.8;;;15.8;;
64018;SDS011;66942;52.138;5.216;2023-01-28T06:57:00;14.8;;;14.0;;
64018;SDS011;66942;52.138;5.216;2023-01-28T06:58:36;14.6;;;13.8;;
64018;SDS011;66942;52.138;5.216;2023-01-28T07:00:14;14.3;;;13.5;;
64018;SDS011;66942;52.138;5.216;2023-01-28T07:01:51;14.3;;;13.5;;
64018;SDS011;66942;52.138;5.216;2023-01-28T07:05:04;15.4;;;14.7;;
64018;SDS011;66942;52.138;5.216;2023-01-28T07:06:40;15.9;;;15.0;;
64018;SDS011;66942;52.138;5.216;2023-01-28T07:08:16;15.1;;;14.3;;
64018;SDS011;66942;52.138;5.216;2023-01-28T07:11:29;14.8;;;14.0;;
64018;SDS011;66942;52.138;5.216;2023-01-28T07:13:05;15.2;;;14.4;;
64018;SDS011;66942;52.138;5.216;2023-01-28T07:14:41;16.3;;;15.5;;
64018;SDS011;66942;52.138;5.216;2023-01-28T07:17:53;14.1;;;13.3;;
64018;SDS011;66942;52.138;5.216;2023-01-28T07:19:29;15.1;;;14.3;;
64018;SDS011;66942;52.138;5.216;2023-01-28T07:21:06;14.3;;;13.5;;
64018;SDS011;66942;52.138;5.216;2023-01-28T07:22:43;16.0;;;15.1;;
64018;SDS011;66942;52.138;5.216;2023-01-28T07:25:59;17.0;;;16.0;;
64018;SDS011;66942;52.138;5.216;2023-01-28T07:27:36;14.6;;;13.8;;
64018;SDS011;66942;52.138;5.216;2023-01-28T07:29:12;16.0;;;15.1;;
64018;SDS011;66942;52.138;5.216;2023-01-28T07:32:26;14.7;;;13.9;;
64018;SDS011;66942;52.138;5.216;2023-01-28T07:34:02;15.8;;;14.9;;
64018;SDS011;66942;52.138;5.216;2023-01-28T07:35:39;16.3;;;15.4;;
64018;SDS011;66942;52.138;5.216;2023-01-28T07:38:51;16.11;;;15.2;;
64018;SDS011;66942;52.138;5.216;2023-01-28T07:40:27;15.3;;;14.4;;
64018;SDS011;66942;52.138;5.216;2023-01-28T07:42:04;15.1;;;14.3;;
64018;SDS011;66942;52.138;5.216;2023-01-28T07:43:40;15.1;;;14.3;;
64018;SDS011;66942;52.138;5.216;2023-01-28T07:46:53;15.2;;;14.3;;
64018;SDS011;66942;52.138;5.216;2023-01-28T07:48:30;15.6;;;14.8;;
64018;SDS011;66942;52.138;5.216;2023-01-28T07:50:07;16.2;;;15.3;;
64018;SDS011;66942;52.138;5.216;2023-01-28T07:53:22;15.0;;;14.2;;
64018;SDS011;66942;52.138;5.216;2023-01-28T07:54:58;14.7;;;13.9;;
64018;SDS011;66942;52.138;5.216;2023-01-28T07:56:34;13.4;;;12.7;;
64018;SDS011;66942;52.138;5.216;2023-01-28T07:59:47;12.9;;;12.2;;
64018;SDS011;66942;52.138;5.216;2023-01-28T08:01:23;10.6;;;10.0;;
64018;SDS011;66942;52.138;5.216;2023-01-28T08:03:01;9.4;;;8.9;;
64018;SDS011;66942;52.138;5.216;2023-01-28T08:04:40;9.21;;;8.81;;
64018;SDS011;66942;52.138;5.216;2023-01-28T08:07:53;9.0;;;8.5;;
64018;SDS011;66942;52.138;5.216;2023-01-28T08:09:29;9.71;;;9.21;;
64018;SDS011;66942;52.138;5.216;2023-01-28T08:11:06;9.71;;;9.21;;
64018;SDS011;66942;52.138;5.216;2023-01-28T08:14:26;10.1;;;9.6;;
64018;SDS011;66942;52.138;5.216;2023-01-28T08:16:04;10.6;;;10.0;;
64018;SDS011;66942;52.138;5.216;2023-01-28T08:17:40;9.4;;;8.81;;
64018;SDS011;66942;52.138;5.216;2023-01-28T08:19:17;9.0;;;8.5;;
64018;SDS011;66942;52.138;5.216;2023-01-28T08:22:31;9.5;;;9.0;;
64018;SDS011;66942;52.138;5.216;2023-01-28T08:24:07;9.9;;;9.4;;
64018;SDS011;66942;52.138;5.216;2023-01-28T08:25:43;9.4;;;8.9;;
64018;SDS011;66942;52.138;5.216;2023-01-28T08:28:56;9.31;;;8.81;;
64018;SDS011;66942;52.138;5.216;2023-01-28T08:30:33;10.4;;;9.81;;
64018;SDS011;66942;52.138;5.216;2023-01-28T08:32:10;8.9;;;8.5;;
64018;SDS011;66942;52.138;5.216;2023-01-28T08:35:22;10.1;;;9.6;;
64018;SDS011;66942;52.138;5.216;2023-01-28T08:36:58;9.5;;;9.0;;
64018;SDS011;66942;52.138;5.216;2023-01-28T08:38:34;10.0;;;9.4;;
64018;SDS011;66942;52.138;5.216;2023-01-28T08:40:10;10.8;;;10.1;;
64018;SDS011;66942;52.138;5.216;2023-01-28T08:43:24;10.7;;;10.1;;
64018;SDS011;66942;52.138;5.216;2023-01-28T08:45:00;10.1;;;9.5;;
64018;SDS011;66942;52.138;5.216;2023-01-28T08:46:37;10.9;;;10.3;;
64018;SDS011;66942;52.138;5.216;2023-01-28T08:49:52;10.0;;;9.4;;
64018;SDS011;66942;52.138;5.216;2023-01-28T08:51:28;9.1;;;8.71;;
64018;SDS011;66942;52.138;5.216;2023-01-28T08:53:06;9.4;;;9.0;;
64018;SDS011;66942;52.138;5.216;2023-01-28T08:54:45;10.9;;;10.21;;
64018;SDS011;66942;52.138;5.216;2023-01-28T08:58:00;10.21;;;9.71;;
64018;SDS011;66942;52.138;5.216;2023-01-28T08:59:43;10.7;;;10.21;;
64018;SDS011;66942;52.138;5.216;2023-01-28T09:01:20;11.2;;;10.6;;
64018;SDS011;66942;52.138;5.216;2023-01-28T09:04:32;10.0;;;9.4;;
64018;SDS011;66942;52.138;5.216;2023-01-28T09:06:08;11.0;;;10.3;;
64018;SDS011;66942;52.138;5.216;2023-01-28T09:07:44;10.3;;;9.6;;
64018;SDS011;66942;52.138;5.216;2023-01-28T09:10:57;9.31;;;8.81;;
64018;SDS011;66942;52.138;5.216;2023-01-28T09:12:35;10.7;;;9.9;;
64018;SDS011;66942;52.138;5.216;2023-01-28T09:14:12;10.1;;;9.6;;
64018;SDS011;66942;52.138;5.216;2023-01-28T09:15:50;9.1;;;8.6;;
64018;SDS011;66942;52.138;5.216;2023-01-28T09:19:02;10.4;;;9.81;;
64018;SDS011;66942;52.138;5.216;2023-01-28T09:20:38;10.0;;;9.4;;
64018;SDS011;66942;52.138;5.216;2023-01-28T09:22:15;8.6;;;8.1;;
64018;SDS011;66942;52.138;5.216;2023-01-28T09:25:31;9.81;;;9.31;;
64018;SDS011;66942;52.138;5.216;2023-01-28T09:27:08;8.5;;;8.1;;
64018;SDS011;66942;52.138;5.216;2023-01-28T09:28:45;9.71;;;9.21;;
64018;SDS011;66942;52.138;5.216;2023-01-28T09:30:23;9.5;;;8.9;;
64018;SDS011;66942;52.138;5.216;2023-01-28T09:33:37;9.6;;;9.1;;
64018;SDS011;66942;52.138;5.216;2023-01-28T09:35:16;10.4;;;9.81;;
64018;SDS011;66942;52.138;5.216;2023-01-28T09:36:53;9.0;;;8.5;;
64018;SDS011;66942;52.138;5.216;2023-01-28T09:40:08;9.21;;;8.71;;
64018;SDS011;66942;52.138;5.216;2023-01-28T09:41:55;9.5;;;9.0;;
64018;SDS011;66942;52.138;5.216;2023-01-28T09:43:58;9.31;;;8.71;;
64018;SDS011;66942;52.138;5.216;2023-01-28T09:45:41;8.81;;;8.2;;
64018;SDS011;66942;52.138;5.216;2023-01-28T09:47:23;9.21;;;8.71;;
64018;SDS011;66942;52.138;5.216;2023-01-28T09:50:52;9.0;;;8.5;;
64018;SDS011;66942;52.138;5.216;2023-01-28T09:52:29;9.21;;;8.71;;
64018;SDS011;66942;52.138;5.216;2023-01-28T09:54:13;9.21;;;8.71;;
64018;SDS011;66942;52.138;5.216;2023-01-28T09:56:03;8.81;;;8.4;;
64018;SDS011;66942;52.138;5.216;2023-01-28T09:57:42;8.5;;;8.1;;
64018;SDS011;66942;52.138;5.216;2023-01-28T10:01:02;7.5;;;7.1;;
64018;SDS011;66942;52.138;5.216;2023-01-28T10:03:20;7.1;;;6.8;;
64018;SDS011;66942;52.138;5.216;2023-01-28T10:05:13;7.9;;;7.4;;
64018;SDS011;66942;52.138;5.216;2023-01-28T10:06:57;6.6;;;6.2;;
64018;SDS011;66942;52.138;5.216;2023-01-28T10:09:02;7.6;;;7.2;;
64018;SDS011;66942;52.138;5.216;2023-01-28T10:11:09;7.3;;;6.9;;
64018;SDS011;66942;52.138;5.216;2023-01-28T10:12:59;7.3;;;6.9;;
64018;SDS011;66942;52.138;5.216;2023-01-28T10:14:50;7.7;;;7.2;;
64018;SDS011;66942;52.138;5.216;2023-01-28T10:16:41;6.1;;;5.7;;
64018;SDS011;66942;52.138;5.216;2023-01-28T10:20:14;7.1;;;5.11;;
64018;SDS011;66942;52.138;5.216;2023-01-28T10:21:58;4.91;;;4.61;;
64018;SDS011;66942;52.138;5.216;2023-01-28T10:23:40;4.91;;;4.61;;
64018;SDS011;66942;52.138;5.216;2023-01-28T10:25:30;4.91;;;4.61;;
64018;SDS011;66942;52.138;5.216;2023-01-28T10:27:09;4.5;;;4.3;;
64018;SDS011;66942;52.138;5.216;2023-01-28T10:30:33;5.4;;;5.11;;
64018;SDS011;66942;52.138;5.216;2023-01-28T10:32:22;5.11;;;4.8;;
64018;SDS011;66942;52.138;5.216;2023-01-28T10:34:04;4.8;;;4.5;;
64018;SDS011;66942;52.138;5.216;2023-01-28T10:35:41;5.0;;;4.7;;
64018;SDS011;66942;52.138;5.216;2023-01-28T10:37:18;4.5;;;4.1;;
64018;SDS011;66942;52.138;5.216;2023-01-28T10:40:31;4.8;;;4.41;;
64018;SDS011;66942;52.138;5.216;2023-01-28T10:42:13;4.8;;;4.5;;
64018;SDS011;66942;52.138;5.216;2023-01-28T10:44:02;4.7;;;4.41;;
64018;SDS011;66942;52.138;5.216;2023-01-28T10:45:40;5.0;;;4.7;;
64018;SDS011;66942;52.138;5.216;2023-01-28T10:49:14;4.7;;;4.41;;
64018;SDS011;66942;52.138;5.216;2023-01-28T10:50:54;5.11;;;4.8;;
64018;SDS011;66942;52.138;5.216;2023-01-28T10:52:32;4.61;;;4.3;;
64018;SDS011;66942;52.138;5.216;2023-01-28T10:54:24;5.2;;;4.91;;
64018;SDS011;66942;52.138;5.216;2023-01-28T10:57:43;4.8;;;4.5;;
64018;SDS011;66942;52.138;5.216;2023-01-28T10:59:21;5.6;;;5.2;;
64018;SDS011;66942;52.138;5.216;2023-01-28T11:01:02;4.91;;;4.61;;
64018;SDS011;66942;52.138;5.216;2023-01-28T11:02:42;4.91;;;4.5;;
64018;SDS011;66942;52.138;5.216;2023-01-28T11:05:59;4.91;;;4.61;;
64018;SDS011;66942;52.138;5.216;2023-01-28T11:07:37;4.61;;;4.3;;
64018;SDS011;66942;52.138;5.216;2023-01-28T11:09:21;4.5;;;4.2;;
64018;SDS011;66942;52.138;5.216;2023-01-28T11:11:00;4.8;;;4.5;;
64018;SDS011;66942;52.138;5.216;2023-01-28T11:14:18;4.5;;;4.2;;
64018;SDS011;66942;52.138;5.216;2023-01-28T11:15:57;4.91;;;4.5;;
64018;SDS011;66942;52.138;5.216;2023-01-28T11:17:41;4.91;;;4.61;;
64018;SDS011;66942;52.138;5.216;2023-01-28T11:19:28;4.41;;;4.0;;
64018;SDS011;66942;52.138;5.216;2023-01-28T11:22:54;3.8;;;3.5;;
64018;SDS011;66942;52.138;5.216;2023-01-28T11:24:32;4.1;;;3.8;;
64018;SDS011;66942;52.138;5.216;2023-01-28T11:26:13;4.2;;;3.9;;
64018;SDS011;66942;52.138;5.216;2023-01-28T11:27:53;4.5;;;3.8;;
64018;SDS011;66942;52.138;5.216;2023-01-28T11:31:09;3.6;;;3.4;;
64018;SDS011;66942;52.138;5.216;2023-01-28T11:32:57;4.0;;;3.7;;
64018;SDS011;66942;52.138;5.216;2023-01-28T11:34:46;3.8;;;3.5;;
64018;SDS011;66942;52.138;5.216;2023-01-28T11:36:25;3.6;;;3.4;;
64018;SDS011;66942;52.138;5.216;2023-01-28T11:38:10;3.2;;;2.9;;
64018;SDS011;66942;52.138;5.216;2023-01-28T11:41:49;3.8;;;3.5;;
64018;SDS011;66942;52.138;5.216;2023-01-28T11:43:28;3.6;;;3.3;;
64018;SDS011;66942;52.138;5.216;2023-01-28T11:45:08;4.2;;;3.7;;
64018;SDS011;66942;52.138;5.216;2023-01-28T11:46:55;3.7;;;3.4;;
64018;SDS011;66942;52.138;5.216;2023-01-28T11:49:32;3.9;;;3.6;;
64018;SDS011;66942;52.138;5.216;2023-01-28T11:51:27;3.7;;;3.5;;
64018;SDS011;66942;52.138;5.216;2023-01-28T11:53:48;3.8;;;3.5;;
64018;SDS011;66942;52.138;5.216;2023-01-28T11:55:39;3.6;;;3.4;;
64018;SDS011;66942;52.138;5.216;2023-01-28T11:57:24;3.5;;;3.2;;
64018;SDS011;66942;52.138;5.216;2023-01-28T11:59:16;4.1;;;3.7;;
64018;SDS011;66942;52.138;5.216;2023-01-28T12:01:08;4.0;;;3.7;;
64018;SDS011;66942;52.138;5.216;2023-01-28T12:04:41;3.7;;;3.5;;
64018;SDS011;66942;52.138;5.216;2023-01-28T12:06:42;3.8;;;3.5;;
64018;SDS011;66942;52.138;5.216;2023-01-28T12:08:33;4.0;;;3.7;;
64018;SDS011;66942;52.138;5.216;2023-01-28T12:10:19;4.41;;;4.0;;
64018;SDS011;66942;52.138;5.216;2023-01-28T12:12:15;3.6;;;3.4;;
64018;SDS011;66942;52.138;5.216;2023-01-28T12:14:16;3.7;;;3.4;;
64018;SDS011;66942;52.138;5.216;2023-01-28T12:16:10;3.6;;;3.3;;
64018;SDS011;66942;52.138;5.216;2023-01-28T12:18:29;3.5;;;3.2;;
64018;SDS011;66942;52.138;5.216;2023-01-28T12:20:21;4.8;;;3.3;;
64018;SDS011;66942;52.138;5.216;2023-01-28T12:22:10;3.7;;;3.4;;
64018;SDS011;66942;52.138;5.216;2023-01-28T12:25:29;3.1;;;2.9;;
64018;SDS011;66942;52.138;5.216;2023-01-28T12:27:22;4.5;;;4.2;;
64018;SDS011;66942;52.138;5.216;2023-01-28T12:29:14;4.91;;;4.41;;
64018;SDS011;66942;52.138;5.216;2023-01-28T12:31:06;4.5;;;4.2;;
64018;SDS011;66942;52.138;5.216;2023-01-28T12:33:04;4.7;;;4.3;;
64018;SDS011;66942;52.138;5.216;2023-01-28T12:37:35;5.0;;;4.61;;
64018;SDS011;66942;52.138;5.216;2023-01-28T12:39:29;4.7;;;4.3;;
64018;SDS011;66942;52.138;5.216;2023-01-28T12:41:17;5.11;;;4.7;;
64018;SDS011;66942;52.138;5.216;2023-01-28T12:42:59;5.2;;;4.8;;
64018;SDS011;66942;52.138;5.216;2023-01-28T12:46:28;4.8;;;4.5;;
64018;SDS011;66942;52.138;5.216;2023-01-28T12:48:15;4.7;;;4.3;;
64018;SDS011;66942;52.138;5.216;2023-01-28T12:49:58;5.0;;;4.7;;
64018;SDS011;66942;52.138;5.216;2023-01-28T12:51:49;4.61;;;4.3;;
64018;SDS011;66942;52.138;5.216;2023-01-28T12:53:35;5.0;;;4.61;;
64018;SDS011;66942;52.138;5.216;2023-01-28T12:57:13;4.8;;;4.5;;
64018;SDS011;66942;52.138;5.216;2023-01-28T12:58:59;4.8;;;4.5;;
64018;SDS011;66942;52.138;5.216;2023-01-28T13:00:42;4.61;;;4.2;;
64018;SDS011;66942;52.138;5.216;2023-01-28T13:02:24;4.61;;;4.3;;
64018;SDS011;66942;52.138;5.216;2023-01-28T13:04:05;4.61;;;4.2;;
64018;SDS011;66942;52.138;5.216;2023-01-28T13:05:49;4.7;;;4.3;;
64018;SDS011;66942;52.138;5.216;2023-01-28T13:09:15;4.61;;;4.3;;
64018;SDS011;66942;52.138;5.216;2023-01-28T13:10:54;4.3;;;4.0;;
64018;SDS011;66942;52.138;5.216;2023-01-28T13:12:33;4.0;;;3.7;;
64018;SDS011;66942;52.138;5.216;2023-01-28T13:14:13;4.0;;;3.7;;
64018;SDS011;66942;52.138;5.216;2023-01-28T13:17:27;3.7;;;3.4;;
64018;SDS011;66942;52.138;5.216;2023-01-28T13:19:07;4.3;;;3.9;;